createdAt,value
2019-05-02T00:02:12.331Z,10.37
2019-05-02T00:06:16.842Z,10.33
2019-05-02T00:10:24.979Z,10.27
2019-05-02T00:14:27.275Z,13.00
2019-05-02T00:18:31.867Z,11.57
2019-05-02T00:22:37.536Z,10.37
2019-05-02T00:26:41.850Z,13.03
2019-05-02T00:30:46.545Z,11.13
2019-05-02T00:34:50.827Z,10.77
2019-05-02T00:38:55.106Z,12.27
2019-05-02T00:42:59.641Z,10.53
2019-05-02T00:47:15.200Z,11.53
2019-05-02T00:51:22.045Z,11.23
2019-05-02T00:55:29.003Z,13.10
2019-05-02T00:59:31.437Z,11.10
2019-05-02T01:03:37.484Z,10.73
2019-05-02T01:07:41.747Z,12.40
2019-05-02T01:11:45.997Z,11.20
2019-05-02T01:15:50.683Z,9.43
2019-05-02T01:19:55.027Z,9.97
2019-05-02T01:24:03.130Z,10.20
2019-05-02T01:28:17.527Z,8.43
2019-05-02T01:32:30.182Z,8.67
2019-05-02T01:36:41.049Z,12.97
2019-05-02T01:40:48.042Z,9.90
2019-05-02T01:44:53.198Z,10.83
2019-05-02T01:48:57.475Z,8.23
2019-05-02T01:53:01.763Z,8.87
2019-05-02T01:57:08.731Z,8.87
2019-05-02T02:01:16.237Z,9.90
2019-05-02T02:05:18.129Z,10.67
2019-05-02T02:09:22.448Z,9.57
2019-05-02T02:13:31.333Z,8.70
2019-05-02T02:17:32.722Z,12.73
2019-05-02T02:21:43.921Z,9.97
2019-05-02T02:25:52.299Z,13.20
2019-05-02T02:29:56.534Z,10.33
2019-05-02T02:34:01.165Z,10.23
2019-05-02T02:38:05.598Z,10.00
2019-05-02T02:42:10.399Z,10.10
2019-05-02T02:46:23.550Z,11.07
2019-05-02T02:50:27.844Z,10.63
2019-05-02T02:54:36.780Z,10.20
2019-05-02T02:58:45.787Z,11.30
2019-05-02T03:02:48.533Z,9.83
2019-05-02T03:06:50.223Z,12.23
2019-05-02T03:10:54.518Z,11.10
2019-05-02T03:14:59.911Z,14.40
2019-05-02T03:19:04.475Z,12.23
2019-05-02T03:23:15.295Z,10.97
2019-05-02T03:27:16.339Z,10.93
2019-05-02T03:31:25.173Z,11.97
2019-05-02T03:35:41.257Z,11.53
2019-05-02T03:39:32.634Z,11.43
2019-05-02T03:43:37.332Z,12.50
2019-05-02T03:47:43.764Z,12.60
2019-05-02T03:51:47.999Z,13.20
2019-05-02T03:55:52.821Z,11.37
2019-05-02T03:59:57.094Z,14.47
2019-05-02T04:04:01.339Z,10.43
2019-05-02T04:08:05.956Z,10.60
2019-05-02T04:12:17.750Z,13.23
2019-05-02T04:16:18.231Z,12.73
2019-05-02T04:20:23.417Z,10.87
2019-05-02T04:24:27.893Z,12.80
2019-05-02T04:28:32.409Z,11.23
2019-05-02T04:32:37.164Z,10.07
2019-05-02T04:36:45.742Z,13.00
2019-05-02T04:40:49.534Z,11.10
2019-05-02T04:45:16.255Z,12.33
2019-05-02T04:48:59.455Z,10.27
2019-05-02T04:53:04.023Z,12.53
2019-05-02T04:57:08.716Z,10.50
2019-05-02T05:01:13.135Z,12.67
2019-05-02T05:05:26.201Z,10.03
2019-05-02T05:09:23.768Z,13.50
2019-05-02T05:13:29.081Z,8.77
2019-05-02T05:17:34.227Z,9.60
2019-05-02T05:21:38.617Z,11.57
2019-05-02T05:25:50.634Z,10.10
2019-05-02T05:29:59.539Z,10.77
2019-05-02T05:34:01.039Z,8.87
2019-05-02T05:38:07.630Z,9.93
2019-05-02T05:42:12.052Z,9.70
2019-05-02T05:46:17.864Z,11.33
2019-05-02T05:50:22.379Z,9.77
2019-05-02T05:54:28.274Z,10.03
2019-05-02T05:58:32.879Z,10.07
2019-05-02T06:02:50.895Z,9.73
2019-05-02T06:06:43.240Z,8.17
2019-05-02T06:10:47.465Z,8.63
2019-05-02T06:14:56.248Z,9.33
2019-05-02T06:18:58.153Z,9.50
2019-05-02T06:23:02.422Z,8.07
2019-05-02T06:27:06.715Z,10.47
2019-05-02T06:31:11.007Z,8.93
2019-05-02T06:35:17.211Z,7.37
2019-05-02T06:39:22.024Z,9.57
2019-05-02T06:43:26.358Z,8.87
2019-05-02T06:47:30.613Z,8.93
2019-05-02T06:51:34.845Z,10.60
2019-05-02T06:55:39.212Z,8.43
2019-05-02T06:59:43.566Z,9.03
2019-05-02T07:03:48.413Z,7.95
2019-05-02T07:07:52.954Z,8.90
2019-05-02T07:12:01.216Z,7.73
2019-05-02T07:16:38.621Z,7.92
2019-05-02T07:20:40.671Z,8.35
2019-05-02T07:24:43.621Z,9.10
2019-05-02T07:28:48.572Z,9.53
2019-05-02T07:32:56.333Z,7.55
2019-05-02T07:36:59.215Z,7.12
2019-05-02T07:41:05.745Z,7.50
2019-05-02T07:45:10.795Z,5.63
2019-05-02T07:49:15.094Z,8.20
2019-05-02T07:53:19.520Z,7.33
2019-05-02T07:57:25.216Z,6.87
2019-05-02T08:01:30.197Z,7.28
2019-05-02T08:05:35.125Z,7.03
2019-05-02T08:09:43.950Z,7.92
2019-05-02T08:13:49.495Z,7.47
2019-05-02T08:17:53.791Z,7.35
2019-05-02T08:21:58.199Z,7.60
2019-05-02T08:26:02.675Z,8.30
2019-05-02T08:30:11.454Z,7.28
2019-05-02T08:34:17.807Z,7.70
2019-05-02T08:38:22.009Z,7.22
2019-05-02T08:42:27.663Z,7.75
2019-05-02T08:46:32.260Z,8.03
2019-05-02T08:50:36.723Z,8.65
2019-05-02T08:54:40.942Z,8.80
2019-05-02T08:58:49.931Z,10.00
2019-05-02T09:02:51.129Z,8.48
2019-05-02T09:06:58.850Z,7.17
2019-05-02T09:11:02.259Z,8.05
2019-05-02T09:15:07.500Z,9.00
2019-05-02T09:19:13.469Z,7.35
2019-05-02T09:23:18.195Z,6.47
2019-05-02T09:27:22.598Z,7.22
2019-05-02T09:31:26.758Z,7.35
2019-05-02T09:35:32.825Z,6.65
2019-05-02T09:39:37.199Z,6.55
2019-05-02T09:43:42.609Z,6.40
2019-05-02T09:47:57.259Z,5.85
2019-05-02T09:51:59.105Z,6.40
2019-05-02T09:55:59.452Z,6.17
2019-05-02T10:00:05.400Z,7.37
2019-05-02T10:04:11.982Z,6.47
2019-05-02T10:08:16.488Z,6.50
2019-05-02T10:12:22.756Z,5.45
2019-05-02T10:16:27.514Z,5.15
2019-05-02T10:20:36.258Z,4.62
2019-05-02T10:24:37.948Z,4.45
2019-05-02T10:28:49.381Z,5.35
2019-05-02T10:32:52.940Z,5.28
2019-05-02T10:36:58.915Z,7.75
2019-05-02T10:41:02.664Z,3.83
2019-05-02T10:45:13.105Z,5.80
2019-05-02T10:49:22.603Z,3.85
2019-05-02T10:53:27.001Z,4.85
2019-05-02T10:57:32.642Z,5.33
2019-05-02T11:02:02.560Z,4.20
2019-05-02T11:06:07.807Z,3.75
2019-05-02T11:10:12.882Z,4.33
2019-05-02T11:14:26.757Z,3.95
2019-05-02T11:18:42.007Z,4.85
2019-05-02T11:22:38.716Z,4.65
2019-05-02T11:26:43.047Z,3.12
2019-05-02T11:30:47.500Z,3.25
2019-05-02T11:34:52.495Z,4.03
2019-05-02T11:39:09.174Z,2.77
2019-05-02T11:43:06.685Z,3.40
2019-05-02T11:47:09.147Z,3.35
2019-05-02T11:51:16.432Z,3.10
2019-05-02T11:55:27.339Z,3.00
2019-05-02T11:59:27.833Z,3.72
2019-05-02T12:03:52.389Z,3.92
2019-05-02T12:08:00.785Z,5.47
2019-05-02T12:12:02.733Z,4.70
2019-05-02T12:16:10.016Z,4.12
2019-05-02T12:20:14.466Z,4.35
2019-05-02T12:24:18.723Z,4.87
2019-05-02T12:28:23.051Z,3.37
2019-05-02T12:32:27.368Z,4.25
2019-05-02T12:36:33.338Z,4.30
2019-05-02T12:40:38.061Z,4.55
2019-05-02T12:44:42.679Z,4.58
2019-05-02T12:48:47.048Z,4.30
2019-05-02T12:52:52.160Z,4.05
2019-05-02T12:56:57.350Z,3.70
2019-05-02T13:01:02.811Z,3.30
2019-05-02T13:05:07.728Z,5.33
2019-05-02T13:09:13.036Z,2.92
2019-05-02T13:13:17.537Z,6.22
2019-05-02T13:17:22.618Z,2.33
2019-05-02T13:21:40.111Z,3.90
2019-05-02T13:25:38.114Z,3.22
2019-05-02T13:29:42.907Z,5.53
2019-05-02T13:34:06.433Z,4.78
2019-05-02T13:38:09.941Z,4.95
2019-05-02T13:42:14.788Z,6.65
2019-05-02T13:46:22.231Z,4.78
2019-05-02T13:50:26.475Z,3.65
2019-05-02T13:54:32.978Z,4.05
2019-05-02T13:58:37.426Z,4.92
2019-05-02T14:02:43.265Z,3.50
2019-05-02T14:06:47.504Z,4.80
2019-05-02T14:10:55.684Z,4.53
2019-05-02T14:14:59.951Z,5.30
2019-05-02T14:19:04.183Z,3.47
2019-05-02T14:23:08.495Z,3.58
2019-05-02T14:27:17.174Z,4.87
2019-05-02T14:31:19.114Z,4.28
2019-05-02T14:35:29.495Z,3.25
2019-05-02T14:39:34.550Z,5.20
2019-05-02T14:43:53.769Z,5.05
2019-05-02T14:48:08.885Z,2.85
2019-05-02T14:52:06.991Z,3.12
2019-05-02T14:56:14.907Z,4.20
2019-05-02T15:00:22.204Z,3.42
2019-05-02T15:04:26.438Z,7.20
2019-05-02T15:08:32.235Z,4.08
2019-05-02T15:12:36.662Z,4.08
2019-05-02T15:16:44.984Z,3.40
2019-05-02T15:20:47.114Z,3.25
2019-05-02T15:24:52.971Z,3.50
2019-05-02T15:28:57.862Z,3.75
2019-05-02T15:33:07.470Z,4.55
2019-05-02T15:37:12.469Z,2.58
2019-05-02T15:41:17.021Z,4.03
2019-05-02T15:45:23.783Z,3.00
2019-05-02T15:49:27.479Z,3.02
2019-05-02T15:53:44.520Z,3.47
2019-05-02T15:57:49.388Z,4.92
2019-05-02T16:01:56.725Z,2.30
2019-05-02T16:06:02.272Z,4.25
2019-05-02T16:10:08.763Z,4.17
2019-05-02T16:14:13.018Z,2.85
2019-05-02T16:18:17.411Z,3.70
2019-05-02T16:22:23.031Z,2.40
2019-05-02T16:26:27.407Z,3.62
2019-05-02T16:30:32.097Z,3.05
2019-05-02T16:34:54.210Z,2.20
2019-05-02T16:38:56.740Z,3.08
2019-05-02T16:43:02.842Z,4.60
2019-05-02T16:47:07.421Z,1.98
2019-05-02T16:51:27.692Z,3.05
2019-05-02T16:55:21.072Z,2.47
2019-05-02T16:59:24.218Z,3.50
2019-05-02T17:03:28.628Z,3.55
2019-05-02T17:07:47.246Z,2.45
2019-05-02T17:11:52.443Z,3.50
2019-05-02T17:15:56.676Z,2.87
2019-05-02T17:20:02.633Z,2.85
2019-05-02T17:24:07.731Z,2.02
2019-05-02T17:28:13.325Z,2.77
2019-05-02T17:32:17.686Z,2.15
2019-05-02T17:36:28.621Z,2.40
2019-05-02T17:40:28.070Z,4.15
2019-05-02T17:44:32.480Z,2.70
2019-05-02T17:48:39.153Z,2.30
2019-05-02T17:52:49.143Z,2.58
2019-05-02T17:56:57.478Z,2.55
2019-05-02T18:01:02.555Z,2.40
2019-05-02T18:05:07.602Z,2.08
2019-05-02T18:09:12.391Z,2.85
2019-05-02T18:13:17.419Z,1.50
2019-05-02T18:17:22.070Z,4.55
2019-05-02T18:21:28.691Z,3.02
2019-05-02T18:25:32.699Z,2.87
2019-05-02T18:29:42.651Z,2.62
2019-05-02T18:33:43.187Z,3.85
2019-05-02T18:37:47.661Z,3.05
2019-05-02T18:41:55.025Z,2.08
2019-05-02T18:46:06.005Z,2.20
2019-05-02T18:50:07.642Z,2.98
2019-05-02T18:54:12.281Z,2.27
2019-05-02T18:58:17.371Z,1.95
2019-05-02T19:02:26.468Z,2.92
2019-05-02T19:06:33.224Z,2.60
2019-05-02T19:10:37.081Z,2.90
2019-05-02T19:14:42.058Z,2.65
2019-05-02T19:18:48.917Z,3.52
2019-05-02T19:22:56.684Z,3.12
2019-05-02T19:26:58.755Z,2.80
2019-05-02T19:31:06.811Z,2.98
2019-05-02T19:35:09.336Z,3.40
2019-05-02T19:39:13.873Z,3.77
2019-05-02T19:43:18.747Z,3.25
2019-05-02T19:47:23.128Z,3.12
2019-05-02T19:51:28.219Z,3.50
2019-05-02T19:56:03.128Z,4.95
2019-05-02T20:00:16.127Z,3.52
2019-05-02T20:04:22.061Z,3.40
2019-05-02T20:08:26.413Z,3.40
2019-05-02T20:12:30.816Z,4.22
2019-05-02T20:16:52.642Z,4.90
2019-05-02T20:21:26.875Z,3.77
2019-05-02T20:25:29.770Z,3.37
2019-05-02T20:29:32.214Z,2.95
2019-05-02T20:33:36.555Z,3.17
2019-05-02T20:37:41.988Z,2.50
2019-05-02T20:41:46.333Z,4.20
2019-05-02T20:45:52.575Z,5.85
2019-05-02T20:49:56.611Z,4.45
2019-05-02T20:54:02.032Z,3.83
2019-05-02T20:58:06.626Z,3.22
2019-05-02T21:02:12.268Z,5.58
2019-05-02T21:06:40.683Z,5.33
2019-05-02T21:10:42.391Z,4.07
2019-05-02T21:14:46.945Z,4.83
2019-05-02T21:18:51.199Z,5.70
2019-05-02T21:22:55.782Z,4.77
2019-05-02T21:27:01.880Z,3.83
2019-05-02T21:31:06.030Z,3.72
2019-05-02T21:35:11.875Z,4.03
2019-05-02T21:39:16.262Z,5.20
2019-05-02T21:43:22.135Z,4.70
2019-05-02T21:47:26.434Z,5.78
2019-05-02T21:51:43.342Z,4.67
2019-05-02T21:56:12.176Z,4.33
2019-05-02T22:00:39.104Z,4.35
2019-05-02T22:04:43.552Z,4.53
2019-05-02T22:08:47.952Z,4.10
2019-05-02T22:12:52.238Z,4.00
2019-05-02T22:16:56.496Z,6.27
2019-05-02T22:21:01.704Z,6.55
2019-05-02T22:25:07.078Z,4.70
2019-05-02T22:29:12.369Z,4.63
2019-05-02T22:33:16.838Z,4.47
2019-05-02T22:37:22.902Z,5.53
2019-05-02T22:41:27.105Z,4.73
2019-05-02T22:45:32.270Z,5.27
2019-05-02T22:49:36.608Z,6.37
2019-05-02T22:53:41.709Z,5.93
2019-05-02T22:57:46.184Z,5.40
2019-05-02T23:01:52.592Z,5.57
2019-05-02T23:05:56.613Z,5.33
2019-05-02T23:10:02.172Z,5.00
2019-05-02T23:14:06.925Z,4.67
2019-05-02T23:18:12.210Z,3.67
2019-05-02T23:22:16.547Z,4.07
2019-05-02T23:26:33.448Z,4.40
2019-05-02T23:30:37.735Z,5.07
2019-05-02T23:34:41.972Z,6.77
2019-05-02T23:38:46.227Z,4.93
2019-05-02T23:42:52.327Z,6.70
2019-05-02T23:46:56.528Z,3.97
2019-05-02T23:51:02.573Z,4.63
2019-05-02T23:55:07.412Z,4.85
2019-05-02T23:59:11.925Z,8.73
